createdAt,value
2022-12-16T00:01:35.440Z,-4.70
2022-12-16T00:04:02.361Z,-4.70
2022-12-16T00:06:33.884Z,-4.70
2022-12-16T00:09:01.573Z,-4.70
2022-12-16T00:11:31.942Z,-4.60
2022-12-16T00:13:58.687Z,-4.70
2022-12-16T00:16:25.538Z,-4.70
2022-12-16T00:18:52.663Z,-4.70
2022-12-16T00:21:20.352Z,-4.60
2022-12-16T00:23:47.585Z,-4.60
2022-12-16T00:26:14.487Z,-4.60
2022-12-16T00:28:43.756Z,-4.60
2022-12-16T00:31:10.771Z,-4.60
2022-12-16T00:33:37.586Z,-4.60
2022-12-16T00:36:04.895Z,-4.60
2022-12-16T00:38:31.881Z,-4.60
2022-12-16T00:40:58.712Z,-4.60
2022-12-16T00:43:25.781Z,-4.60
2022-12-16T00:45:52.676Z,-4.50
2022-12-16T00:48:23.104Z,-4.50
2022-12-16T00:50:52.195Z,-4.50
2022-12-16T00:53:20.403Z,-4.50
2022-12-16T00:55:47.489Z,-4.40
2022-12-16T00:58:15.048Z,-4.40
2022-12-16T01:00:41.825Z,-4.40
2022-12-16T01:03:08.875Z,-4.40
2022-12-16T01:05:38.472Z,-4.40
2022-12-16T01:08:05.664Z,-4.40
2022-12-16T01:10:32.493Z,-4.40
2022-12-16T01:12:59.300Z,-4.40
2022-12-16T01:15:26.098Z,-4.40
2022-12-16T01:17:52.907Z,-4.40
2022-12-16T01:20:22.347Z,-4.40
2022-12-16T01:22:49.153Z,-4.40
2022-12-16T01:25:17.690Z,-4.30
2022-12-16T01:27:44.530Z,-4.30
2022-12-16T01:30:13.488Z,-4.30
2022-12-16T01:32:40.294Z,-4.20
2022-12-16T01:35:17.953Z,-4.20
2022-12-16T01:37:54.344Z,-4.20
2022-12-16T01:40:24.274Z,-4.20
2022-12-16T01:42:50.992Z,-4.20
2022-12-16T01:45:33.865Z,-4.20
2022-12-16T01:48:06.932Z,-4.20
2022-12-16T01:50:35.087Z,-4.20
2022-12-16T01:53:04.888Z,-4.20
2022-12-16T01:55:42.691Z,-4.20
2022-12-16T01:58:15.003Z,-4.20
2022-12-16T02:00:42.359Z,-4.20
2022-12-16T02:03:10.557Z,-4.20
2022-12-16T02:05:41.452Z,-4.20
2022-12-16T02:08:17.186Z,-4.20
2022-12-16T02:10:43.993Z,-4.20
2022-12-16T02:13:52.170Z,-4.20
2022-12-16T02:16:41.471Z,-4.20
2022-12-16T02:19:35.175Z,-4.20
2022-12-16T02:22:19.955Z,-4.20
2022-12-16T02:25:18.279Z,-4.20
2022-12-16T02:28:07.902Z,-4.20
2022-12-16T02:30:44.244Z,-4.20
2022-12-16T02:33:26.579Z,-4.20
2022-12-16T02:36:11.361Z,-4.20
2022-12-16T02:38:59.886Z,-4.20
2022-12-16T02:41:44.696Z,-4.20
2022-12-16T02:44:13.227Z,-4.20
2022-12-16T02:46:43.642Z,-4.20
2022-12-16T02:49:30.773Z,-4.20
2022-12-16T02:51:59.767Z,-4.10
2022-12-16T02:54:28.275Z,-4.10
2022-12-16T02:57:34.016Z,-4.10
2022-12-16T09:16:44.103Z,-7.50
2022-12-16T09:19:29.631Z,-7.60
2022-12-16T09:22:15.181Z,-7.60
2022-12-16T09:25:00.520Z,-7.50
2022-12-16T09:27:45.899Z,-7.40
2022-12-16T09:30:31.264Z,-7.30
2022-12-16T09:33:16.599Z,-7.30
2022-12-16T09:36:01.958Z,-7.20
2022-12-16T09:38:47.230Z,-7.10
2022-12-16T09:42:00.824Z,-7.10
2022-12-16T09:45:05.568Z,-7.10
2022-12-16T09:48:07.019Z,-7.00
2022-12-16T09:50:57.112Z,-6.90
2022-12-16T09:53:44.156Z,-6.80
2022-12-16T09:56:39.776Z,-6.70
2022-12-16T09:59:31.457Z,-6.70
2022-12-16T10:02:18.154Z,-6.60
2022-12-16T10:05:10.084Z,-6.50
2022-12-16T11:30:55.728Z,-3.70
2022-12-16T11:33:44.736Z,-3.50
2022-12-16T11:36:41.132Z,-3.50
2022-12-16T11:39:33.806Z,-3.50
2022-12-16T11:42:19.990Z,-3.50
2022-12-16T11:45:09.937Z,-3.50
2022-12-16T11:48:04.633Z,-3.50
2022-12-16T11:50:54.442Z,-3.50
2022-12-16T11:54:09.185Z,-3.40
2022-12-16T11:56:59.605Z,-3.40
2022-12-16T12:00:12.097Z,-3.50
2022-12-16T12:03:03.831Z,-3.50
2022-12-16T12:05:53.804Z,-3.50
2022-12-16T12:08:53.736Z,-3.40
2022-12-16T12:11:49.864Z,-3.50
2022-12-16T12:14:53.935Z,-3.40
2022-12-16T12:18:28.411Z,-3.30
2022-12-16T12:21:28.520Z,-3.50
2022-12-16T12:24:35.898Z,-3.60
2022-12-16T12:27:43.251Z,-3.60
2022-12-16T12:30:35.067Z,-3.60
2022-12-16T12:33:43.686Z,-3.60
2022-12-16T12:37:05.632Z,-3.60
2022-12-16T12:40:09.847Z,-3.80
2022-12-16T12:43:01.322Z,-3.80
2022-12-16T12:46:31.713Z,-3.70
2022-12-16T12:49:42.191Z,-3.80
2022-12-16T12:52:38.069Z,-3.90
2022-12-16T12:56:17.391Z,-3.80
2022-12-16T12:59:21.300Z,-3.80
2022-12-16T13:02:19.617Z,-3.80
2022-12-16T13:05:10.564Z,-3.70
2022-12-16T13:07:59.194Z,-3.90
2022-12-16T13:10:55.856Z,-3.80
2022-12-16T13:13:56.641Z,-3.90
2022-12-16T13:17:17.988Z,-3.80
2022-12-16T13:20:13.704Z,-3.70
2022-12-16T13:23:03.462Z,-3.60
2022-12-16T13:25:57.114Z,-3.60
2022-12-16T13:28:54.350Z,-3.50
2022-12-16T13:34:49.956Z,-3.50
2022-12-16T13:37:46.782Z,-3.40
2022-12-16T13:40:37.582Z,-3.30
2022-12-16T13:44:05.640Z,-3.30
2022-12-16T13:47:09.154Z,-3.30
2022-12-16T13:49:54.749Z,-3.20
2022-12-16T13:53:20.013Z,-3.20
2022-12-16T13:56:23.833Z,-3.20
2022-12-16T13:59:19.701Z,-3.10
2022-12-16T14:02:30.203Z,-3.10
2022-12-16T14:05:43.799Z,-3.10
2022-12-16T14:08:52.922Z,-3.10
2022-12-16T14:12:05.636Z,-3.10
2022-12-16T14:15:05.670Z,-3.10
2022-12-16T14:18:02.424Z,-3.20
2022-12-16T14:21:00.234Z,-3.30
2022-12-16T14:24:01.004Z,-3.40
2022-12-16T14:29:51.253Z,-3.60
2022-12-16T14:33:10.846Z,-3.80
2022-12-16T14:36:27.188Z,-3.80
2022-12-16T14:39:22.605Z,-4.00
2022-12-16T14:42:27.771Z,-4.00
2022-12-16T14:45:38.223Z,-4.10
2022-12-16T14:48:50.759Z,-4.20
2022-12-16T14:51:57.425Z,-4.30
2022-12-16T14:54:50.086Z,-4.40
2022-12-16T14:57:38.238Z,-4.40
2022-12-16T15:00:27.907Z,-4.40
2022-12-16T15:03:30.499Z,-4.50
2022-12-16T15:06:17.123Z,-4.60
2022-12-16T15:09:11.781Z,-4.60
2022-12-16T15:11:58.962Z,-4.70
2022-12-16T15:14:54.934Z,-4.90
2022-12-16T15:18:01.687Z,-5.00
2022-12-16T15:20:51.121Z,-5.00
2022-12-16T15:23:46.943Z,-5.10
2022-12-16T15:26:40.665Z,-5.10
2022-12-16T15:29:46.484Z,-5.10
2022-12-16T15:33:01.676Z,-5.10
2022-12-16T15:35:56.116Z,-5.20
2022-12-16T15:38:52.963Z,-5.20
2022-12-16T15:41:44.825Z,-5.20
2022-12-16T15:44:45.636Z,-5.20
2022-12-16T15:47:55.456Z,-5.30
2022-12-16T15:50:46.771Z,-5.30
2022-12-16T15:53:55.071Z,-5.40
2022-12-16T15:56:51.271Z,-5.40
2022-12-16T15:59:46.067Z,-5.50
2022-12-16T16:02:50.123Z,-5.50
2022-12-16T16:05:42.004Z,-5.50
2022-12-16T16:08:31.334Z,-5.60
2022-12-16T16:11:25.284Z,-5.70
2022-12-16T16:14:14.175Z,-5.70
2022-12-16T16:17:03.317Z,-5.80
2022-12-16T16:19:52.461Z,-5.80
2022-12-16T16:22:46.813Z,-5.90
2022-12-16T16:25:37.874Z,-5.90
2022-12-16T16:28:23.478Z,-6.00
2022-12-16T16:31:09.002Z,-6.00
2022-12-16T16:33:54.834Z,-6.10
2022-12-16T16:36:40.601Z,-6.10
2022-12-16T16:39:27.878Z,-6.20
2022-12-16T16:42:14.553Z,-6.20
2022-12-16T16:45:00.324Z,-6.30
2022-12-16T16:47:46.420Z,-6.30
2022-12-16T16:50:33.710Z,-6.30
2022-12-16T16:53:22.513Z,-6.40
2022-12-16T16:56:18.181Z,-6.50
2022-12-16T16:59:05.691Z,-6.50
2022-12-16T17:01:53.353Z,-6.50
2022-12-16T17:04:39.012Z,-6.50
2022-12-16T17:07:24.634Z,-6.50
2022-12-16T17:10:13.270Z,-6.60
2022-12-16T17:13:04.419Z,-6.60
2022-12-16T17:15:56.670Z,-6.70
2022-12-16T17:18:52.367Z,-6.70
2022-12-16T17:21:39.130Z,-6.70
2022-12-16T17:24:27.378Z,-6.70
2022-12-16T17:27:22.249Z,-6.80
2022-12-16T17:30:24.256Z,-6.80
2022-12-16T17:37:17.093Z,-6.90
2022-12-16T17:40:04.003Z,-6.90
2022-12-16T17:42:53.092Z,-7.00
2022-12-16T17:45:42.083Z,-7.00
2022-12-16T17:48:27.860Z,-7.00
2022-12-16T17:51:17.509Z,-7.00
2022-12-16T17:54:09.730Z,-6.90
2022-12-16T17:57:03.327Z,-6.90
2022-12-16T17:59:54.767Z,-6.90
2022-12-16T18:02:56.611Z,-7.00
2022-12-16T18:05:56.968Z,-6.90
2022-12-16T18:08:46.117Z,-7.00
2022-12-16T18:11:38.764Z,-7.00
2022-12-16T18:14:28.894Z,-7.00
2022-12-16T18:17:17.214Z,-7.00
2022-12-16T18:20:06.366Z,-7.00
2022-12-16T18:22:56.452Z,-7.00
2022-12-16T18:25:57.606Z,-7.10
2022-12-16T18:29:01.509Z,-7.10
2022-12-16T18:31:51.068Z,-7.00
2022-12-16T18:34:37.532Z,-7.00
2022-12-16T18:37:27.370Z,-7.00
2022-12-16T18:40:22.623Z,-7.00
2022-12-16T18:43:15.210Z,-6.90
2022-12-16T18:46:12.550Z,-6.90
2022-12-16T18:49:02.292Z,-7.00
2022-12-16T18:51:49.300Z,-6.90
2022-12-16T18:54:42.116Z,-6.90
2022-12-16T18:57:37.953Z,-6.90
2022-12-16T19:00:37.038Z,-6.90
2022-12-16T19:03:22.966Z,-6.90
2022-12-16T19:06:16.744Z,-7.00
2022-12-16T19:09:06.144Z,-7.00
2022-12-16T19:11:58.352Z,-7.00
2022-12-16T19:14:46.724Z,-7.00
2022-12-16T19:17:32.511Z,-7.10
2022-12-16T19:20:21.393Z,-7.10
2022-12-16T19:23:24.060Z,-7.10
2022-12-16T19:26:24.133Z,-7.20
2022-12-16T19:29:13.304Z,-7.20
2022-12-16T19:32:08.684Z,-7.30
2022-12-16T19:38:08.995Z,-7.30
2022-12-16T19:41:03.659Z,-7.40
2022-12-16T19:44:08.333Z,-7.40
2022-12-16T19:47:04.032Z,-7.50
2022-12-16T19:50:17.322Z,-7.60
2022-12-16T19:53:11.004Z,-7.60
2022-12-16T19:56:01.521Z,-7.60
2022-12-16T20:02:18.725Z,-7.80
2022-12-16T20:05:17.767Z,-7.80
2022-12-16T20:08:17.875Z,-7.90
2022-12-16T20:11:20.475Z,-7.90
2022-12-16T20:14:39.210Z,-8.00
2022-12-16T20:17:44.456Z,-8.00
2022-12-16T20:20:40.282Z,-7.90
2022-12-16T20:23:31.868Z,-7.90
2022-12-16T20:26:32.397Z,-7.80
2022-12-16T20:32:43.444Z,-7.60
2022-12-16T20:35:48.422Z,-7.60
2022-12-16T20:38:45.535Z,-7.50
2022-12-16T20:41:43.282Z,-7.40
2022-12-16T20:44:41.210Z,-7.40
2022-12-16T20:47:37.021Z,-7.30
2022-12-16T20:50:27.971Z,-7.30
2022-12-16T20:53:19.390Z,-7.20
2022-12-16T20:56:23.518Z,-7.10
2022-12-16T21:02:54.888Z,-6.90
2022-12-16T21:05:42.348Z,-6.90
2022-12-16T21:08:34.163Z,-6.80
2022-12-16T21:11:38.760Z,-6.70
2022-12-16T21:17:48.556Z,-6.70
2022-12-16T21:21:07.676Z,-6.60
2022-12-16T21:24:07.764Z,-6.50
2022-12-16T21:30:15.293Z,-6.50
2022-12-16T21:33:05.117Z,-6.40
2022-12-16T21:36:06.539Z,-6.40
2022-12-16T21:39:07.296Z,-6.30
2022-12-16T21:42:08.211Z,-6.30
2022-12-16T21:45:34.016Z,-6.20
2022-12-16T21:48:34.993Z,-6.10
2022-12-16T21:51:34.397Z,-6.10
2022-12-16T21:54:30.426Z,-6.00
2022-12-16T21:57:28.415Z,-6.00
2022-12-16T22:00:28.451Z,-5.90
2022-12-16T22:03:23.804Z,-5.90
2022-12-16T22:09:30.006Z,-5.80
2022-12-16T22:12:21.348Z,-5.80
2022-12-16T22:15:23.320Z,-5.70
2022-12-16T22:18:35.152Z,-5.70
2022-12-16T22:21:49.971Z,-5.60
2022-12-16T22:25:15.644Z,-5.60
2022-12-16T22:28:18.465Z,-5.60
2022-12-16T22:31:28.393Z,-5.70
2022-12-16T22:34:20.991Z,-5.70
2022-12-16T22:37:35.906Z,-5.60
2022-12-16T22:40:28.423Z,-5.50
2022-12-16T22:43:19.302Z,-5.40
2022-12-16T22:46:20.985Z,-5.40
2022-12-16T22:49:15.806Z,-5.30
2022-12-16T22:55:26.990Z,-5.40
2022-12-16T22:58:59.619Z,-5.70
2022-12-16T23:01:59.655Z,-5.60
2022-12-16T23:04:48.357Z,-5.70
2022-12-16T23:07:40.040Z,-5.60
2022-12-16T23:10:33.634Z,-5.50
2022-12-16T23:13:30.586Z,-5.30
2022-12-16T23:16:20.642Z,-5.40
2022-12-16T23:19:10.728Z,-5.30
2022-12-16T23:22:06.915Z,-5.30
2022-12-16T23:28:00.654Z,-5.20
2022-12-16T23:30:54.532Z,-5.10
2022-12-16T23:33:52.709Z,-5.10
2022-12-16T23:36:40.922Z,-5.10
2022-12-16T23:39:30.600Z,-5.10
2022-12-16T23:42:19.050Z,-5.10
2022-12-16T23:45:11.506Z,-5.10
2022-12-16T23:47:57.724Z,-5.10
2022-12-16T23:50:45.625Z,-5.00
2022-12-16T23:53:32.697Z,-5.00
2022-12-16T23:56:27.810Z,-4.90
2022-12-16T23:59:25.373Z,-4.90
